Volborg, MT

6:36 PM MDT on September 04, 2015 (GMT -0600)
Graveyard Creek Road | | Change Station
CLOSE
Current Station
Personal Weather Station
Location: Miles City, MT
Elevation: 3028 ft
Nearby Weather Stations

Elev 3028 ft 46.18 °N, 106.07 °W | Updated 12 minutes ago

Partly Cloudy
Partly Cloudy
79.2 °F
Feels Like 80 °F
N
4.3
Wind Variable Wind from NW

Today
High -- | Low -- °F
--% Chance of Precip.
Yesterday
High -- | Low -- °F
Precip. -- in
6:26 AM 7:35 PM
Waning Gibbous, 54% visible
Pressure 29.80 in
Visibility 10.0 miles
Clouds Few 4300 ft
Heat Index 80 °F
Dew Point 55 °F
Humidity 43%
Rainfall 0.00 in
Snow Depth Not available.
UV 1 out of 12
Pollen 9.10 out of 12
Air Quality Not available.
Flu Activity Not available.
METAR KMLS 042353Z AUTO 03012KT 10SM FEW043 23/13 A2984 RMK AO2 SLP091 T02330133 10250 20200 55003
Pressure 29.80 in
Visibility 10.0 miles
Clouds Few 4300 ft
Heat Index 80 °F
Dew Point 55 °F
Humidity 43%
Rainfall 0.00 in
Snow Depth Not available.
UV 1 out of 12
Pollen 9.10 out of 12
Air Quality Not available.
Flu Activity Not available.
METAR KMLS 042353Z AUTO 03012KT 10SM FEW043 23/13 A2984 RMK AO2 SLP091 T02330133 10250 20200 55003

10-Day Weather Forecast

×

Almanac

Astronomy

Sep. 04, 2015 Rise Set
Actual Time
Civil Twilight
Nautical Twilight
Astronomical Twilight
Moon
Length of Visible Light
Length of Day
Tomorrow will be .
, % of the Moon is Illuminated

Today's Extremes

State Highs State Lows

Community

WunderPhotos

Upload Photos

1,852,363 photos uploaded!

WunderBlogs® & News

Nearby

Air Quality

  Air Quality AQ Index Pollutant
Not available.

Snow Depth

Station Depth Elevation

Earthquake Activity

City Distance Mag. Time & Date
Minimum magnitude displayed is 2.5.

Coastal Water Temperatures

Place Temperature

Stations

Nearby Weather Stations

Station Location Temp. Windchill Dew Point Humidity Wind Precip. Elev Updated Type